sensor_id;sensor_type;location;lat;lon;timestamp;temperature;humidity
10660;DHT22;5378;53.206;13.316;2023-06-14T00:01:56;14.70;99.90
10660;DHT22;5378;53.206;13.316;2023-06-14T00:04:44;14.70;99.90
10660;DHT22;5378;53.206;13.316;2023-06-14T00:07:35;14.70;99.90
10660;DHT22;5378;53.206;13.316;2023-06-14T00:10:22;14.70;99.90
10660;DHT22;5378;53.206;13.316;2023-06-14T00:13:10;14.60;99.90
10660;DHT22;5378;53.206;13.316;2023-06-14T00:15:58;14.60;99.90
10660;DHT22;5378;53.206;13.316;2023-06-14T00:18:46;14.70;99.90
10660;DHT22;5378;53.206;13.316;2023-06-14T00:21:33;14.70;99.90
10660;DHT22;5378;53.206;13.316;2023-06-14T00:24:21;14.70;99.90
10660;DHT22;5378;53.206;13.316;2023-06-14T00:27:07;14.60;99.90
10660;DHT22;5378;53.206;13.316;2023-06-14T00:29:55;14.60;99.90
10660;DHT22;5378;53.206;13.316;2023-06-14T00:32:45;14.70;99.90
10660;DHT22;5378;53.206;13.316;2023-06-14T00:35:33;14.70;99.90
10660;DHT22;5378;53.206;13.316;2023-06-14T00:38:22;14.60;99.90
10660;DHT22;5378;53.206;13.316;2023-06-14T00:41:09;14.50;99.90
10660;DHT22;5378;53.206;13.316;2023-06-14T00:43:56;14.40;99.90
10660;DHT22;5378;53.206;13.316;2023-06-14T00:46:44;14.60;99.90
10660;DHT22;5378;53.206;13.316;2023-06-14T00:49:31;14.70;99.90
10660;DHT22;5378;53.206;13.316;2023-06-14T00:52:20;14.60;99.90
10660;DHT22;5378;53.206;13.316;2023-06-14T00:55:08;14.60;99.90
10660;DHT22;5378;53.206;13.316;2023-06-14T00:57:56;14.50;99.90
10660;DHT22;5378;53.206;13.316;2023-06-14T01:00:43;14.30;99.90
10660;DHT22;5378;53.206;13.316;2023-06-14T01:03:50;14.30;99.90
10660;DHT22;5378;53.206;13.316;2023-06-14T01:07:02;14.30;99.90
10660;DHT22;5378;53.206;13.316;2023-06-14T01:10:08;14.30;99.90
10660;DHT22;5378;53.206;13.316;2023-06-14T01:13:02;14.40;99.90
10660;DHT22;5378;53.206;13.316;2023-06-14T01:15:52;14.50;99.90
10660;DHT22;5378;53.206;13.316;2023-06-14T01:18:40;14.40;99.90
10660;DHT22;5378;53.206;13.316;2023-06-14T01:21:33;14.40;99.90
10660;DHT22;5378;53.206;13.316;2023-06-14T01:24:29;14.30;99.90
10660;DHT22;5378;53.206;13.316;2023-06-14T01:27:19;14.30;99.90
10660;DHT22;5378;53.206;13.316;2023-06-14T01:30:08;14.40;99.90
10660;DHT22;5378;53.206;13.316;2023-06-14T01:32:56;14.40;99.90
10660;DHT22;5378;53.206;13.316;2023-06-14T01:35:46;14.30;99.90
10660;DHT22;5378;53.206;13.316;2023-06-14T01:38:33;14.30;99.90
10660;DHT22;5378;53.206;13.316;2023-06-14T01:41:22;14.30;99.90
10660;DHT22;5378;53.206;13.316;2023-06-14T01:44:12;14.20;99.90
10660;DHT22;5378;53.206;13.316;2023-06-14T01:47:01;14.20;99.90
10660;DHT22;5378;53.206;13.316;2023-06-14T01:49:49;14.20;99.90
10660;DHT22;5378;53.206;13.316;2023-06-14T01:52:36;14.20;99.90
10660;DHT22;5378;53.206;13.316;2023-06-14T01:55:24;14.20;99.90
10660;DHT22;5378;53.206;13.316;2023-06-14T01:58:15;14.20;99.90
10660;DHT22;5378;53.206;13.316;2023-06-14T02:01:03;14.50;99.90
10660;DHT22;5378;53.206;13.316;2023-06-14T02:03:51;14.00;99.90
10660;DHT22;5378;53.206;13.316;2023-06-14T02:06:39;14.10;99.90
10660;DHT22;5378;53.206;13.316;2023-06-14T02:09:27;14.10;99.90
10660;DHT22;5378;53.206;13.316;2023-06-14T02:12:14;14.10;99.90
10660;DHT22;5378;53.206;13.316;2023-06-14T02:15:03;14.10;99.90
10660;DHT22;5378;53.206;13.316;2023-06-14T02:17:51;14.00;99.90
10660;DHT22;5378;53.206;13.316;2023-06-14T02:20:39;14.00;99.90
10660;DHT22;5378;53.206;13.316;2023-06-14T02:23:26;14.00;99.90
10660;DHT22;5378;53.206;13.316;2023-06-14T02:26:13;14.00;99.90
10660;DHT22;5378;53.206;13.316;2023-06-14T02:29:00;13.90;99.90
10660;DHT22;5378;53.206;13.316;2023-06-14T02:31:48;13.90;99.90
10660;DHT22;5378;53.206;13.316;2023-06-14T02:34:39;13.90;99.90
10660;DHT22;5378;53.206;13.316;2023-06-14T02:37:27;13.90;99.90
10660;DHT22;5378;53.206;13.316;2023-06-14T02:40:14;13.90;99.90
10660;DHT22;5378;53.206;13.316;2023-06-14T02:43:01;13.80;99.90
10660;DHT22;5378;53.206;13.316;2023-06-14T02:45:48;13.80;99.90
10660;DHT22;5378;53.206;13.316;2023-06-14T02:48:36;13.90;99.90
10660;DHT22;5378;53.206;13.316;2023-06-14T02:51:23;13.80;99.90
10660;DHT22;5378;53.206;13.316;2023-06-14T02:54:10;13.80;99.90
10660;DHT22;5378;53.206;13.316;2023-06-14T02:56:57;13.70;99.90
10660;DHT22;5378;53.206;13.316;2023-06-14T02:59:44;13.70;99.90
10660;DHT22;5378;53.206;13.316;2023-06-14T03:02:32;13.60;99.90
10660;DHT22;5378;53.206;13.316;2023-06-14T03:05:20;13.60;99.90
10660;DHT22;5378;53.206;13.316;2023-06-14T03:08:08;13.70;99.90
10660;DHT22;5378;53.206;13.316;2023-06-14T03:10:54;13.80;99.90
10660;DHT22;5378;53.206;13.316;2023-06-14T03:13:43;13.90;99.90
10660;DHT22;5378;53.206;13.316;2023-06-14T03:16:31;13.70;99.90
10660;DHT22;5378;53.206;13.316;2023-06-14T03:19:19;13.60;99.90
10660;DHT22;5378;53.206;13.316;2023-06-14T03:22:08;13.80;99.90
10660;DHT22;5378;53.206;13.316;2023-06-14T03:24:59;14.00;99.90
10660;DHT22;5378;53.206;13.316;2023-06-14T03:27:49;14.50;99.90
10660;DHT22;5378;53.206;13.316;2023-06-14T03:30:38;15.20;99.90
10660;DHT22;5378;53.206;13.316;2023-06-14T03:33:25;15.90;99.90
10660;DHT22;5378;53.206;13.316;2023-06-14T03:36:13;16.40;99.90
10660;DHT22;5378;53.206;13.316;2023-06-14T03:39:02;17.10;99.90
10660;DHT22;5378;53.206;13.316;2023-06-14T03:41:49;17.60;99.90
10660;DHT22;5378;53.206;13.316;2023-06-14T03:44:36;18.20;99.90
10660;DHT22;5378;53.206;13.316;2023-06-14T03:47:24;18.80;99.90
10660;DHT22;5378;53.206;13.316;2023-06-14T03:50:11;19.30;99.90
10660;DHT22;5378;53.206;13.316;2023-06-14T03:52:58;19.90;99.90
10660;DHT22;5378;53.206;13.316;2023-06-14T03:55:49;20.40;99.90
10660;DHT22;5378;53.206;13.316;2023-06-14T03:58:43;20.90;99.90
10660;DHT22;5378;53.206;13.316;2023-06-14T04:01:30;21.50;99.90
10660;DHT22;5378;53.206;13.316;2023-06-14T04:04:19;21.90;99.90
10660;DHT22;5378;53.206;13.316;2023-06-14T04:07:07;22.10;99.90
10660;DHT22;5378;53.206;13.316;2023-06-14T04:09:55;22.40;99.90
10660;DHT22;5378;53.206;13.316;2023-06-14T04:12:43;22.80;99.90
10660;DHT22;5378;53.206;13.316;2023-06-14T04:15:30;23.00;99.90
10660;DHT22;5378;53.206;13.316;2023-06-14T04:18:18;23.40;99.90
10660;DHT22;5378;53.206;13.316;2023-06-14T04:21:06;23.80;99.90
10660;DHT22;5378;53.206;13.316;2023-06-14T04:23:54;24.00;99.90
10660;DHT22;5378;53.206;13.316;2023-06-14T04:26:45;24.10;99.90
10660;DHT22;5378;53.206;13.316;2023-06-14T04:29:36;23.80;99.90
10660;DHT22;5378;53.206;13.316;2023-06-14T04:32:29;24.10;99.90
10660;DHT22;5378;53.206;13.316;2023-06-14T04:35:19;24.70;99.90
10660;DHT22;5378;53.206;13.316;2023-06-14T04:38:07;25.40;99.90
10660;DHT22;5378;53.206;13.316;2023-06-14T04:40:56;24.70;99.90
10660;DHT22;5378;53.206;13.316;2023-06-14T04:43:44;22.60;99.90
10660;DHT22;5378;53.206;13.316;2023-06-14T04:46:36;20.80;99.90
10660;DHT22;5378;53.206;13.316;2023-06-14T04:49:31;19.40;99.90
10660;DHT22;5378;53.206;13.316;2023-06-14T04:52:19;18.50;99.90
10660;DHT22;5378;53.206;13.316;2023-06-14T04:55:08;18.00;99.90
10660;DHT22;5378;53.206;13.316;2023-06-14T04:57:55;17.70;99.90
10660;DHT22;5378;53.206;13.316;2023-06-14T05:00:44;17.20;99.90
10660;DHT22;5378;53.206;13.316;2023-06-14T05:03:33;17.10;99.90
10660;DHT22;5378;53.206;13.316;2023-06-14T05:06:21;17.10;99.90
10660;DHT22;5378;53.206;13.316;2023-06-14T05:09:09;17.60;99.90
10660;DHT22;5378;53.206;13.316;2023-06-14T05:11:56;18.20;99.90
10660;DHT22;5378;53.206;13.316;2023-06-14T05:14:46;18.70;99.90
10660;DHT22;5378;53.206;13.316;2023-06-14T05:17:35;19.10;99.90
10660;DHT22;5378;53.206;13.316;2023-06-14T05:20:25;19.30;99.90
10660;DHT22;5378;53.206;13.316;2023-06-14T05:23:12;19.20;99.90
10660;DHT22;5378;53.206;13.316;2023-06-14T05:26:00;19.10;99.90
10660;DHT22;5378;53.206;13.316;2023-06-14T05:28:48;18.90;99.90
10660;DHT22;5378;53.206;13.316;2023-06-14T05:31:37;18.50;99.90
10660;DHT22;5378;53.206;13.316;2023-06-14T05:34:24;18.60;99.90
10660;DHT22;5378;53.206;13.316;2023-06-14T05:37:13;18.60;99.90
10660;DHT22;5378;53.206;13.316;2023-06-14T05:40:00;18.60;99.90
10660;DHT22;5378;53.206;13.316;2023-06-14T05:42:48;18.60;99.90
10660;DHT22;5378;53.206;13.316;2023-06-14T05:45:36;18.50;99.90
10660;DHT22;5378;53.206;13.316;2023-06-14T05:48:23;18.60;99.90
10660;DHT22;5378;53.206;13.316;2023-06-14T05:51:10;18.50;99.90
10660;DHT22;5378;53.206;13.316;2023-06-14T05:53:58;18.50;99.90
10660;DHT22;5378;53.206;13.316;2023-06-14T05:56:46;18.60;99.90
10660;DHT22;5378;53.206;13.316;2023-06-14T05:59:33;18.60;99.90
10660;DHT22;5378;53.206;13.316;2023-06-14T06:02:20;18.60;99.90
10660;DHT22;5378;53.206;13.316;2023-06-14T06:05:08;18.70;99.90
10660;DHT22;5378;53.206;13.316;2023-06-14T06:07:55;19.30;99.90
10660;DHT22;5378;53.206;13.316;2023-06-14T06:10:44;22.40;99.90
10660;DHT22;5378;53.206;13.316;2023-06-14T06:13:31;25.70;99.90
10660;DHT22;5378;53.206;13.316;2023-06-14T06:16:18;28.50;99.90
10660;DHT22;5378;53.206;13.316;2023-06-14T06:19:05;30.50;98.40
10660;DHT22;5378;53.206;13.316;2023-06-14T06:21:52;31.70;92.60
10660;DHT22;5378;53.206;13.316;2023-06-14T06:24:39;32.30;91.50
10660;DHT22;5378;53.206;13.316;2023-06-14T06:27:28;32.60;85.80
10660;DHT22;5378;53.206;13.316;2023-06-14T06:30:16;32.90;86.60
10660;DHT22;5378;53.206;13.316;2023-06-14T06:33:04;33.30;85.20
10660;DHT22;5378;53.206;13.316;2023-06-14T06:35:51;33.50;78.60
10660;DHT22;5378;53.206;13.316;2023-06-14T06:38:39;33.80;79.30
10660;DHT22;5378;53.206;13.316;2023-06-14T06:41:27;33.90;77.40
10660;DHT22;5378;53.206;13.316;2023-06-14T06:44:15;32.70;74.80
10660;DHT22;5378;53.206;13.316;2023-06-14T06:47:07;31.70;78.00
10660;DHT22;5378;53.206;13.316;2023-06-14T06:49:55;31.00;78.20
10660;DHT22;5378;53.206;13.316;2023-06-14T06:52:42;30.60;78.70
10660;DHT22;5378;53.206;13.316;2023-06-14T06:55:31;30.30;78.10
10660;DHT22;5378;53.206;13.316;2023-06-14T06:58:18;30.30;78.30
10660;DHT22;5378;53.206;13.316;2023-06-14T07:01:06;31.10;79.60
10660;DHT22;5378;53.206;13.316;2023-06-14T07:03:55;31.40;78.20
10660;DHT22;5378;53.206;13.316;2023-06-14T07:06:42;31.30;75.20
10660;DHT22;5378;53.206;13.316;2023-06-14T07:09:29;30.90;75.00
10660;DHT22;5378;53.206;13.316;2023-06-14T07:12:16;30.50;76.50
10660;DHT22;5378;53.206;13.316;2023-06-14T07:15:05;30.80;76.00
10660;DHT22;5378;53.206;13.316;2023-06-14T07:17:54;30.80;73.00
10660;DHT22;5378;53.206;13.316;2023-06-14T07:20:45;30.20;74.00
10660;DHT22;5378;53.206;13.316;2023-06-14T07:23:33;29.90;74.70
10660;DHT22;5378;53.206;13.316;2023-06-14T07:26:20;29.50;76.30
10660;DHT22;5378;53.206;13.316;2023-06-14T07:29:08;29.40;73.70
10660;DHT22;5378;53.206;13.316;2023-06-14T07:31:54;28.80;76.20
10660;DHT22;5378;53.206;13.316;2023-06-14T07:34:43;28.50;74.20
10660;DHT22;5378;53.206;13.316;2023-06-14T07:37:30;29.10;74.80
10660;DHT22;5378;53.206;13.316;2023-06-14T07:40:17;29.00;74.20
10660;DHT22;5378;53.206;13.316;2023-06-14T07:43:03;28.60;76.90
10660;DHT22;5378;53.206;13.316;2023-06-14T07:45:50;28.30;75.40
10660;DHT22;5378;53.206;13.316;2023-06-14T07:48:47;28.20;77.00
10660;DHT22;5378;53.206;13.316;2023-06-14T07:51:35;28.50;74.50
10660;DHT22;5378;53.206;13.316;2023-06-14T07:54:23;28.80;75.00
10660;DHT22;5378;53.206;13.316;2023-06-14T07:57:12;29.40;72.60
10660;DHT22;5378;53.206;13.316;2023-06-14T07:59:59;29.30;72.60
10660;DHT22;5378;53.206;13.316;2023-06-14T08:02:57;29.20;70.50
10660;DHT22;5378;53.206;13.316;2023-06-14T08:05:46;29.30;71.90
10660;DHT22;5378;53.206;13.316;2023-06-14T08:08:34;28.90;70.80
10660;DHT22;5378;53.206;13.316;2023-06-14T08:11:21;29.10;70.10
10660;DHT22;5378;53.206;13.316;2023-06-14T08:14:09;29.20;69.80
10660;DHT22;5378;53.206;13.316;2023-06-14T08:16:56;29.80;69.40
10660;DHT22;5378;53.206;13.316;2023-06-14T08:19:43;29.30;64.80
10660;DHT22;5378;53.206;13.316;2023-06-14T08:22:30;28.80;67.50
10660;DHT22;5378;53.206;13.316;2023-06-14T08:25:21;27.70;67.80
10660;DHT22;5378;53.206;13.316;2023-06-14T08:28:08;27.40;68.20
10660;DHT22;5378;53.206;13.316;2023-06-14T08:30:55;28.00;68.60
10660;DHT22;5378;53.206;13.316;2023-06-14T08:33:42;28.60;67.10
10660;DHT22;5378;53.206;13.316;2023-06-14T08:36:29;28.20;67.50
10660;DHT22;5378;53.206;13.316;2023-06-14T08:39:16;27.70;68.60
10660;DHT22;5378;53.206;13.316;2023-06-14T08:42:06;27.20;69.20
10660;DHT22;5378;53.206;13.316;2023-06-14T08:44:57;26.50;71.00
10660;DHT22;5378;53.206;13.316;2023-06-14T08:47:44;25.60;71.70
10660;DHT22;5378;53.206;13.316;2023-06-14T08:50:32;25.20;73.70
10660;DHT22;5378;53.206;13.316;2023-06-14T08:53:19;25.90;72.60
10660;DHT22;5378;53.206;13.316;2023-06-14T08:56:08;26.60;72.40
10660;DHT22;5378;53.206;13.316;2023-06-14T08:59:00;27.00;71.30
10660;DHT22;5378;53.206;13.316;2023-06-14T09:01:48;26.80;71.90
10660;DHT22;5378;53.206;13.316;2023-06-14T09:04:44;27.00;70.20
10660;DHT22;5378;53.206;13.316;2023-06-14T09:07:31;27.00;67.50
10660;DHT22;5378;53.206;13.316;2023-06-14T09:10:21;27.10;67.40
10660;DHT22;5378;53.206;13.316;2023-06-14T09:13:08;26.50;65.00
10660;DHT22;5378;53.206;13.316;2023-06-14T09:15:57;25.50;69.20
10660;DHT22;5378;53.206;13.316;2023-06-14T09:18:46;24.90;69.00
10660;DHT22;5378;53.206;13.316;2023-06-14T09:21:34;24.30;68.70
10660;DHT22;5378;53.206;13.316;2023-06-14T09:24:23;24.10;73.00
10660;DHT22;5378;53.206;13.316;2023-06-14T09:27:15;24.00;72.80
10660;DHT22;5378;53.206;13.316;2023-06-14T09:30:02;24.00;74.00
10660;DHT22;5378;53.206;13.316;2023-06-14T09:32:51;24.10;72.90
10660;DHT22;5378;53.206;13.316;2023-06-14T09:35:39;24.30;72.70
10660;DHT22;5378;53.206;13.316;2023-06-14T09:38:26;24.00;73.60
10660;DHT22;5378;53.206;13.316;2023-06-14T09:41:13;24.10;73.10
10660;DHT22;5378;53.206;13.316;2023-06-14T09:44:00;23.90;74.90
10660;DHT22;5378;53.206;13.316;2023-06-14T09:46:48;23.70;72.90
10660;DHT22;5378;53.206;13.316;2023-06-14T09:49:37;23.50;73.60
10660;DHT22;5378;53.206;13.316;2023-06-14T09:52:27;23.60;74.30
10660;DHT22;5378;53.206;13.316;2023-06-14T09:55:15;23.50;72.70
10660;DHT22;5378;53.206;13.316;2023-06-14T09:58:04;23.40;75.50
10660;DHT22;5378;53.206;13.316;2023-06-14T10:00:53;23.20;75.30
10660;DHT22;5378;53.206;13.316;2023-06-14T10:03:42;23.40;76.20
10660;DHT22;5378;53.206;13.316;2023-06-14T10:06:38;23.50;76.30
10660;DHT22;5378;53.206;13.316;2023-06-14T10:09:25;23.40;73.40
10660;DHT22;5378;53.206;13.316;2023-06-14T10:12:14;23.30;76.50
10660;DHT22;5378;53.206;13.316;2023-06-14T10:15:09;23.20;76.50
10660;DHT22;5378;53.206;13.316;2023-06-14T10:17:59;23.10;76.80
10660;DHT22;5378;53.206;13.316;2023-06-14T10:20:53;23.20;75.00
10660;DHT22;5378;53.206;13.316;2023-06-14T10:23:45;23.10;76.10
10660;DHT22;5378;53.206;13.316;2023-06-14T10:26:34;23.20;75.40
10660;DHT22;5378;53.206;13.316;2023-06-14T10:29:21;23.10;74.80
10660;DHT22;5378;53.206;13.316;2023-06-14T10:32:08;23.00;75.60
10660;DHT22;5378;53.206;13.316;2023-06-14T10:34:56;23.00;75.50
10660;DHT22;5378;53.206;13.316;2023-06-14T10:37:46;22.90;74.20
10660;DHT22;5378;53.206;13.316;2023-06-14T10:40:35;22.90;74.90
10660;DHT22;5378;53.206;13.316;2023-06-14T10:43:23;23.00;75.30
10660;DHT22;5378;53.206;13.316;2023-06-14T10:46:13;22.60;74.10
10660;DHT22;5378;53.206;13.316;2023-06-14T10:49:01;22.40;74.00
10660;DHT22;5378;53.206;13.316;2023-06-14T10:51:50;22.50;77.50
10660;DHT22;5378;53.206;13.316;2023-06-14T10:54:38;22.50;75.90
10660;DHT22;5378;53.206;13.316;2023-06-14T10:57:26;22.50;75.00
10660;DHT22;5378;53.206;13.316;2023-06-14T11:00:14;22.50;75.90
10660;DHT22;5378;53.206;13.316;2023-06-14T11:03:31;22.60;76.10
10660;DHT22;5378;53.206;13.316;2023-06-14T11:06:26;22.40;77.20
10660;DHT22;5378;53.206;13.316;2023-06-14T11:09:38;22.70;77.30
10660;DHT22;5378;53.206;13.316;2023-06-14T11:12:32;22.70;75.90
10660;DHT22;5378;53.206;13.316;2023-06-14T11:15:28;22.80;77.00
10660;DHT22;5378;53.206;13.316;2023-06-14T11:18:15;22.60;74.80
10660;DHT22;5378;53.206;13.316;2023-06-14T11:21:03;22.70;78.30
10660;DHT22;5378;53.206;13.316;2023-06-14T11:23:51;22.80;76.30
10660;DHT22;5378;53.206;13.316;2023-06-14T11:26:40;23.00;73.90
10660;DHT22;5378;53.206;13.316;2023-06-14T11:29:29;23.00;75.20
10660;DHT22;5378;53.206;13.316;2023-06-14T11:32:16;23.00;77.00
10660;DHT22;5378;53.206;13.316;2023-06-14T11:35:03;22.80;76.80
10660;DHT22;5378;53.206;13.316;2023-06-14T11:37:52;22.90;74.40
10660;DHT22;5378;53.206;13.316;2023-06-14T11:40:41;23.00;74.90
10660;DHT22;5378;53.206;13.316;2023-06-14T11:43:28;22.90;74.80
10660;DHT22;5378;53.206;13.316;2023-06-14T11:46:18;22.90;75.50
10660;DHT22;5378;53.206;13.316;2023-06-14T11:49:09;22.90;73.40
10660;DHT22;5378;53.206;13.316;2023-06-14T11:51:56;22.80;74.90
10660;DHT22;5378;53.206;13.316;2023-06-14T11:54:43;22.90;76.40
10660;DHT22;5378;53.206;13.316;2023-06-14T11:57:30;23.00;75.40
10660;DHT22;5378;53.206;13.316;2023-06-14T12:00:24;22.80;73.20
10660;DHT22;5378;53.206;13.316;2023-06-14T12:03:13;22.70;72.70
10660;DHT22;5378;53.206;13.316;2023-06-14T12:06:07;22.80;74.00
10660;DHT22;5378;53.206;13.316;2023-06-14T12:08:55;22.90;72.60
10660;DHT22;5378;53.206;13.316;2023-06-14T12:11:43;23.00;73.70
10660;DHT22;5378;53.206;13.316;2023-06-14T12:14:30;23.00;73.30
10660;DHT22;5378;53.206;13.316;2023-06-14T12:17:18;23.10;72.90
10660;DHT22;5378;53.206;13.316;2023-06-14T12:20:08;23.20;72.80
10660;DHT22;5378;53.206;13.316;2023-06-14T12:22:59;23.10;72.70
10660;DHT22;5378;53.206;13.316;2023-06-14T12:25:47;23.00;72.20
10660;DHT22;5378;53.206;13.316;2023-06-14T12:28:36;23.00;73.30
10660;DHT22;5378;53.206;13.316;2023-06-14T12:31:23;23.10;71.30
10660;DHT22;5378;53.206;13.316;2023-06-14T12:34:10;23.20;73.80
10660;DHT22;5378;53.206;13.316;2023-06-14T12:36:59;23.30;71.30
10660;DHT22;5378;53.206;13.316;2023-06-14T12:39:46;23.20;72.00
10660;DHT22;5378;53.206;13.316;2023-06-14T12:42:33;23.20;72.40
10660;DHT22;5378;53.206;13.316;2023-06-14T12:45:21;23.20;73.50
10660;DHT22;5378;53.206;13.316;2023-06-14T12:48:09;22.80;72.90
10660;DHT22;5378;53.206;13.316;2023-06-14T12:50:56;22.70;74.50
10660;DHT22;5378;53.206;13.316;2023-06-14T12:53:44;22.70;72.80
10660;DHT22;5378;53.206;13.316;2023-06-14T12:56:31;22.80;73.00
10660;DHT22;5378;53.206;13.316;2023-06-14T12:59:18;23.00;75.60
10660;DHT22;5378;53.206;13.316;2023-06-14T13:02:13;23.00;73.20
10660;DHT22;5378;53.206;13.316;2023-06-14T13:05:00;23.00;74.30
10660;DHT22;5378;53.206;13.316;2023-06-14T13:07:50;23.10;74.60
10660;DHT22;5378;53.206;13.316;2023-06-14T13:10:38;23.10;73.50
10660;DHT22;5378;53.206;13.316;2023-06-14T13:13:25;23.20;73.90
10660;DHT22;5378;53.206;13.316;2023-06-14T13:16:13;23.40;74.00
10660;DHT22;5378;53.206;13.316;2023-06-14T13:19:00;23.40;73.10
10660;DHT22;5378;53.206;13.316;2023-06-14T13:21:48;23.30;71.90
10660;DHT22;5378;53.206;13.316;2023-06-14T13:24:35;23.20;71.80
10660;DHT22;5378;53.206;13.316;2023-06-14T13:27:25;23.20;72.40
10660;DHT22;5378;53.206;13.316;2023-06-14T13:30:12;23.40;71.30
10660;DHT22;5378;53.206;13.316;2023-06-14T13:33:00;23.30;72.50
10660;DHT22;5378;53.206;13.316;2023-06-14T13:35:48;23.40;74.50
10660;DHT22;5378;53.206;13.316;2023-06-14T13:38:36;23.30;71.40
10660;DHT22;5378;53.206;13.316;2023-06-14T13:41:23;23.30;72.10
10660;DHT22;5378;53.206;13.316;2023-06-14T13:44:11;23.30;73.00
10660;DHT22;5378;53.206;13.316;2023-06-14T13:47:01;23.30;72.60
10660;DHT22;5378;53.206;13.316;2023-06-14T13:49:48;23.40;72.00
10660;DHT22;5378;53.206;13.316;2023-06-14T13:52:35;23.40;72.00
10660;DHT22;5378;53.206;13.316;2023-06-14T13:55:22;23.50;72.80
10660;DHT22;5378;53.206;13.316;2023-06-14T13:58:09;23.30;71.80
10660;DHT22;5378;53.206;13.316;2023-06-14T14:00:58;23.40;71.90
10660;DHT22;5378;53.206;13.316;2023-06-14T14:03:48;23.50;72.00
10660;DHT22;5378;53.206;13.316;2023-06-14T14:06:35;23.70;73.80
10660;DHT22;5378;53.206;13.316;2023-06-14T14:09:22;23.90;72.50
10660;DHT22;5378;53.206;13.316;2023-06-14T14:12:09;23.90;72.00
10660;DHT22;5378;53.206;13.316;2023-06-14T14:14:56;23.60;69.70
10660;DHT22;5378;53.206;13.316;2023-06-14T14:17:45;23.40;69.00
10660;DHT22;5378;53.206;13.316;2023-06-14T14:20:33;23.60;72.20
10660;DHT22;5378;53.206;13.316;2023-06-14T14:23:19;23.70;72.20
10660;DHT22;5378;53.206;13.316;2023-06-14T14:26:07;23.80;72.60
10660;DHT22;5378;53.206;13.316;2023-06-14T14:28:54;23.70;73.00
10660;DHT22;5378;53.206;13.316;2023-06-14T14:31:41;23.60;73.50
10660;DHT22;5378;53.206;13.316;2023-06-14T14:34:29;23.50;73.80
10660;DHT22;5378;53.206;13.316;2023-06-14T14:37:17;23.30;72.60
10660;DHT22;5378;53.206;13.316;2023-06-14T14:40:05;23.20;74.20
10660;DHT22;5378;53.206;13.316;2023-06-14T14:42:52;23.10;71.90
10660;DHT22;5378;53.206;13.316;2023-06-14T14:45:39;23.00;72.80
10660;DHT22;5378;53.206;13.316;2023-06-14T14:48:26;23.10;74.80
10660;DHT22;5378;53.206;13.316;2023-06-14T14:51:15;23.20;74.40
10660;DHT22;5378;53.206;13.316;2023-06-14T14:54:02;23.30;73.20
10660;DHT22;5378;53.206;13.316;2023-06-14T14:56:49;23.30;73.00
10660;DHT22;5378;53.206;13.316;2023-06-14T14:59:36;23.30;71.40
10660;DHT22;5378;53.206;13.316;2023-06-14T15:02:23;23.30;72.10
10660;DHT22;5378;53.206;13.316;2023-06-14T15:05:10;23.00;73.00
10660;DHT22;5378;53.206;13.316;2023-06-14T15:07:58;22.90;74.50
10660;DHT22;5378;53.206;13.316;2023-06-14T15:10:45;23.00;75.50
10660;DHT22;5378;53.206;13.316;2023-06-14T15:13:34;22.90;77.10
10660;DHT22;5378;53.206;13.316;2023-06-14T15:16:21;22.80;75.40
10660;DHT22;5378;53.206;13.316;2023-06-14T15:19:08;22.90;76.20
10660;DHT22;5378;53.206;13.316;2023-06-14T15:21:56;23.10;76.30
10660;DHT22;5378;53.206;13.316;2023-06-14T15:24:46;23.30;77.30
10660;DHT22;5378;53.206;13.316;2023-06-14T15:27:34;23.30;75.00
10660;DHT22;5378;53.206;13.316;2023-06-14T15:30:21;23.30;76.40
10660;DHT22;5378;53.206;13.316;2023-06-14T15:33:09;23.60;77.70
10660;DHT22;5378;53.206;13.316;2023-06-14T15:35:56;23.20;73.90
10660;DHT22;5378;53.206;13.316;2023-06-14T15:38:43;23.10;74.90
10660;DHT22;5378;53.206;13.316;2023-06-14T15:41:31;23.00;76.00
10660;DHT22;5378;53.206;13.316;2023-06-14T15:44:18;22.90;74.70
10660;DHT22;5378;53.206;13.316;2023-06-14T15:47:06;22.90;74.10
10660;DHT22;5378;53.206;13.316;2023-06-14T15:49:54;22.90;76.10
10660;DHT22;5378;53.206;13.316;2023-06-14T15:52:41;22.70;75.00
10660;DHT22;5378;53.206;13.316;2023-06-14T15:55:27;22.80;75.80
10660;DHT22;5378;53.206;13.316;2023-06-14T15:58:16;22.80;76.40
10660;DHT22;5378;53.206;13.316;2023-06-14T16:01:03;22.80;76.40
10660;DHT22;5378;53.206;13.316;2023-06-14T16:03:50;22.80;75.00
10660;DHT22;5378;53.206;13.316;2023-06-14T16:06:37;22.70;73.50
10660;DHT22;5378;53.206;13.316;2023-06-14T16:09:25;22.70;77.30
10660;DHT22;5378;53.206;13.316;2023-06-14T16:12:12;22.60;75.40
10660;DHT22;5378;53.206;13.316;2023-06-14T16:15:00;22.50;75.30
10660;DHT22;5378;53.206;13.316;2023-06-14T16:17:48;22.50;77.20
10660;DHT22;5378;53.206;13.316;2023-06-14T16:20:35;22.40;77.60
10660;DHT22;5378;53.206;13.316;2023-06-14T16:23:22;22.50;75.70
10660;DHT22;5378;53.206;13.316;2023-06-14T16:26:11;22.50;78.40
10660;DHT22;5378;53.206;13.316;2023-06-14T16:28:59;22.50;77.80
10660;DHT22;5378;53.206;13.316;2023-06-14T16:31:47;22.40;76.20
10660;DHT22;5378;53.206;13.316;2023-06-14T16:34:34;22.30;78.50
10660;DHT22;5378;53.206;13.316;2023-06-14T16:37:21;22.30;78.60
10660;DHT22;5378;53.206;13.316;2023-06-14T16:40:09;22.20;80.20
10660;DHT22;5378;53.206;13.316;2023-06-14T16:42:56;22.20;78.50
10660;DHT22;5378;53.206;13.316;2023-06-14T16:45:44;22.20;78.00
10660;DHT22;5378;53.206;13.316;2023-06-14T16:48:32;22.20;80.60
10660;DHT22;5378;53.206;13.316;2023-06-14T16:51:19;22.20;81.40
10660;DHT22;5378;53.206;13.316;2023-06-14T16:54:06;22.30;82.50
10660;DHT22;5378;53.206;13.316;2023-06-14T16:56:53;22.30;82.80
10660;DHT22;5378;53.206;13.316;2023-06-14T16:59:40;22.40;82.80
10660;DHT22;5378;53.206;13.316;2023-06-14T17:02:28;22.50;81.70
10660;DHT22;5378;53.206;13.316;2023-06-14T17:05:17;22.40;81.50
10660;DHT22;5378;53.206;13.316;2023-06-14T17:08:04;22.20;82.60
10660;DHT22;5378;53.206;13.316;2023-06-14T17:10:52;22.00;83.90
10660;DHT22;5378;53.206;13.316;2023-06-14T17:13:39;21.90;84.80
10660;DHT22;5378;53.206;13.316;2023-06-14T17:16:26;21.90;84.30
10660;DHT22;5378;53.206;13.316;2023-06-14T17:19:13;21.80;83.60
10660;DHT22;5378;53.206;13.316;2023-06-14T17:22:02;21.70;85.30
10660;DHT22;5378;53.206;13.316;2023-06-14T17:24:49;21.60;84.70
10660;DHT22;5378;53.206;13.316;2023-06-14T17:27:36;21.60;85.40
10660;DHT22;5378;53.206;13.316;2023-06-14T17:30:24;21.60;85.40
10660;DHT22;5378;53.206;13.316;2023-06-14T17:33:11;21.50;86.50
10660;DHT22;5378;53.206;13.316;2023-06-14T17:36:00;21.30;86.10
10660;DHT22;5378;53.206;13.316;2023-06-14T17:38:48;21.30;85.20
10660;DHT22;5378;53.206;13.316;2023-06-14T17:41:36;21.20;86.00
10660;DHT22;5378;53.206;13.316;2023-06-14T17:44:23;21.10;86.40